sensor_id;sensor_type;location;lat;lon;timestamp;P1;durP1;ratioP1;P2;durP2;ratioP2
68803;SDS011;55787;52.678;13.314;2023-02-03T00:01:48;14.15;;;5.22;;
68803;SDS011;55787;52.678;13.314;2023-02-03T00:04:14;15.25;;;4.90;;
68803;SDS011;55787;52.678;13.314;2023-02-03T00:06:41;13.73;;;4.50;;
68803;SDS011;55787;52.678;13.314;2023-02-03T00:09:09;13.07;;;4.05;;
68803;SDS011;55787;52.678;13.314;2023-02-03T00:11:36;13.30;;;4.18;;
68803;SDS011;55787;52.678;13.314;2023-02-03T00:14:03;15.50;;;4.45;;
68803;SDS011;55787;52.678;13.314;2023-02-03T00:16:30;14.65;;;4.60;;
68803;SDS011;55787;52.678;13.314;2023-02-03T00:18:57;13.30;;;4.10;;
68803;SDS011;55787;52.678;13.314;2023-02-03T00:21:24;14.15;;;4.45;;
68803;SDS011;55787;52.678;13.314;2023-02-03T00:23:50;16.25;;;4.28;;
68803;SDS011;55787;52.678;13.314;2023-02-03T00:26:17;15.13;;;4.10;;
68803;SDS011;55787;52.678;13.314;2023-02-03T00:28:44;13.77;;;3.70;;
68803;SDS011;55787;52.678;13.314;2023-02-03T00:31:14;12.23;;;3.10;;
68803;SDS011;55787;52.678;13.314;2023-02-03T00:33:46;10.45;;;1.98;;
68803;SDS011;55787;52.678;13.314;2023-02-03T00:36:13;13.05;;;2.63;;
68803;SDS011;55787;52.678;13.314;2023-02-03T00:38:40;12.18;;;2.35;;
68803;SDS011;55787;52.678;13.314;2023-02-03T00:41:06;13.02;;;2.25;;
68803;SDS011;55787;52.678;13.314;2023-02-03T00:43:33;14.37;;;2.43;;
68803;SDS011;55787;52.678;13.314;2023-02-03T00:46:00;10.82;;;2.08;;
68803;SDS011;55787;52.678;13.314;2023-02-03T00:48:26;14.40;;;2.47;;
68803;SDS011;55787;52.678;13.314;2023-02-03T00:50:53;10.95;;;2.15;;
68803;SDS011;55787;52.678;13.314;2023-02-03T00:53:20;12.63;;;2.33;;
68803;SDS011;55787;52.678;13.314;2023-02-03T00:55:46;11.60;;;2.07;;
68803;SDS011;55787;52.678;13.314;2023-02-03T00:58:13;9.55;;;1.88;;
68803;SDS011;55787;52.678;13.314;2023-02-03T01:00:39;11.68;;;2.10;;
68803;SDS011;55787;52.678;13.314;2023-02-03T01:03:06;12.60;;;2.22;;
68803;SDS011;55787;52.678;13.314;2023-02-03T01:05:33;15.07;;;2.33;;
68803;SDS011;55787;52.678;13.314;2023-02-03T01:08:00;11.87;;;2.50;;
68803;SDS011;55787;52.678;13.314;2023-02-03T01:10:27;13.57;;;2.17;;
68803;SDS011;55787;52.678;13.314;2023-02-03T01:12:55;13.45;;;2.50;;
68803;SDS011;55787;52.678;13.314;2023-02-03T01:15:22;10.40;;;2.45;;
68803;SDS011;55787;52.678;13.314;2023-02-03T01:17:48;10.75;;;2.30;;
68803;SDS011;55787;52.678;13.314;2023-02-03T01:20:15;9.27;;;1.73;;
68803;SDS011;55787;52.678;13.314;2023-02-03T01:22:43;14.35;;;2.25;;
68803;SDS011;55787;52.678;13.314;2023-02-03T01:25:10;13.40;;;2.63;;
68803;SDS011;55787;52.678;13.314;2023-02-03T01:27:37;11.13;;;2.50;;
68803;SDS011;55787;52.678;13.314;2023-02-03T01:30:04;14.90;;;2.55;;
68803;SDS011;55787;52.678;13.314;2023-02-03T01:32:32;10.43;;;2.70;;
68803;SDS011;55787;52.678;13.314;2023-02-03T01:34:58;16.48;;;3.47;;
68803;SDS011;55787;52.678;13.314;2023-02-03T01:37:25;12.52;;;2.75;;
68803;SDS011;55787;52.678;13.314;2023-02-03T01:39:52;10.05;;;2.50;;
68803;SDS011;55787;52.678;13.314;2023-02-03T01:42:18;13.68;;;2.75;;
68803;SDS011;55787;52.678;13.314;2023-02-03T01:44:46;11.50;;;3.00;;
68803;SDS011;55787;52.678;13.314;2023-02-03T01:49:44;11.15;;;3.00;;
68803;SDS011;55787;52.678;13.314;2023-02-03T01:52:23;10.45;;;2.60;;
68803;SDS011;55787;52.678;13.314;2023-02-03T01:54:52;11.45;;;2.97;;
68803;SDS011;55787;52.678;13.314;2023-02-03T01:57:22;7.70;;;1.37;;
68803;SDS011;55787;52.678;13.314;2023-02-03T01:59:55;11.70;;;2.92;;
68803;SDS011;55787;52.678;13.314;2023-02-03T02:02:25;7.28;;;1.45;;
68803;SDS011;55787;52.678;13.314;2023-02-03T02:07:35;10.88;;;2.70;;
68803;SDS011;55787;52.678;13.314;2023-02-03T02:10:04;9.90;;;2.70;;
68803;SDS011;55787;52.678;13.314;2023-02-03T02:12:31;11.85;;;2.85;;
68803;SDS011;55787;52.678;13.314;2023-02-03T02:14:58;10.18;;;2.22;;
68803;SDS011;55787;52.678;13.314;2023-02-03T02:17:30;8.77;;;2.08;;
68803;SDS011;55787;52.678;13.314;2023-02-03T02:20:29;14.00;;;3.00;;
68803;SDS011;55787;52.678;13.314;2023-02-03T02:28:13;9.68;;;2.40;;
68803;SDS011;55787;52.678;13.314;2023-02-03T02:30:56;11.68;;;2.50;;
68803;SDS011;55787;52.678;13.314;2023-02-03T02:38:53;11.82;;;2.30;;
68803;SDS011;55787;52.678;13.314;2023-02-03T02:41:33;6.40;;;1.25;;
68803;SDS011;55787;52.678;13.314;2023-02-03T02:44:36;9.18;;;2.00;;
68803;SDS011;55787;52.678;13.314;2023-02-03T02:47:05;13.48;;;2.28;;
68803;SDS011;55787;52.678;13.314;2023-02-03T02:50:00;7.67;;;1.70;;
68803;SDS011;55787;52.678;13.314;2023-02-03T02:52:33;10.70;;;2.28;;
68803;SDS011;55787;52.678;13.314;2023-02-03T02:55:10;9.77;;;2.30;;
68803;SDS011;55787;52.678;13.314;2023-02-03T02:57:41;7.72;;;2.13;;
68803;SDS011;55787;52.678;13.314;2023-02-03T03:00:10;9.95;;;2.70;;
68803;SDS011;55787;52.678;13.314;2023-02-03T03:02:37;11.03;;;2.43;;
68803;SDS011;55787;52.678;13.314;2023-02-03T03:05:05;8.50;;;2.50;;
68803;SDS011;55787;52.678;13.314;2023-02-03T03:07:56;8.70;;;2.35;;
68803;SDS011;55787;52.678;13.314;2023-02-03T03:10:28;8.73;;;2.20;;
68803;SDS011;55787;52.678;13.314;2023-02-03T03:13:02;8.52;;;2.38;;
68803;SDS011;55787;52.678;13.314;2023-02-03T03:15:34;9.37;;;2.17;;
68803;SDS011;55787;52.678;13.314;2023-02-03T03:20:34;8.20;;;1.73;;
68803;SDS011;55787;52.678;13.314;2023-02-03T03:23:05;8.60;;;2.05;;
68803;SDS011;55787;52.678;13.314;2023-02-03T03:25:40;7.57;;;1.85;;
68803;SDS011;55787;52.678;13.314;2023-02-03T03:28:32;7.43;;;1.90;;
68803;SDS011;55787;52.678;13.314;2023-02-03T03:31:05;8.07;;;1.70;;
68803;SDS011;55787;52.678;13.314;2023-02-03T03:33:32;8.15;;;1.90;;
68803;SDS011;55787;52.678;13.314;2023-02-03T03:36:02;8.27;;;1.73;;
68803;SDS011;55787;52.678;13.314;2023-02-03T03:38:43;7.70;;;1.90;;
68803;SDS011;55787;52.678;13.314;2023-02-03T03:41:15;6.80;;;1.10;;
68803;SDS011;55787;52.678;13.314;2023-02-03T03:43:58;6.75;;;1.42;;
68803;SDS011;55787;52.678;13.314;2023-02-03T03:46:35;6.50;;;1.60;;
68803;SDS011;55787;52.678;13.314;2023-02-03T03:49:08;7.30;;;1.30;;
68803;SDS011;55787;52.678;13.314;2023-02-03T03:51:45;8.00;;;1.60;;
68803;SDS011;55787;52.678;13.314;2023-02-03T03:54:15;5.17;;;0.83;;
68803;SDS011;55787;52.678;13.314;2023-02-03T03:56:50;5.18;;;1.08;;
68803;SDS011;55787;52.678;13.314;2023-02-03T03:59:27;5.88;;;0.93;;
68803;SDS011;55787;52.678;13.314;2023-02-03T04:01:58;6.07;;;1.10;;
68803;SDS011;55787;52.678;13.314;2023-02-03T04:04:34;7.22;;;1.30;;
68803;SDS011;55787;52.678;13.314;2023-02-03T04:07:02;5.97;;;1.00;;
68803;SDS011;55787;52.678;13.314;2023-02-03T04:09:29;7.70;;;1.60;;
68803;SDS011;55787;52.678;13.314;2023-02-03T04:11:56;7.78;;;1.63;;
68803;SDS011;55787;52.678;13.314;2023-02-03T04:14:32;7.45;;;1.48;;
68803;SDS011;55787;52.678;13.314;2023-02-03T04:17:03;10.50;;;1.90;;
68803;SDS011;55787;52.678;13.314;2023-02-03T04:19:30;8.53;;;1.90;;
68803;SDS011;55787;52.678;13.314;2023-02-03T04:21:56;8.32;;;2.17;;
68803;SDS011;55787;52.678;13.314;2023-02-03T04:24:23;7.95;;;1.85;;
68803;SDS011;55787;52.678;13.314;2023-02-03T04:26:50;5.60;;;0.82;;
68803;SDS011;55787;52.678;13.314;2023-02-03T04:29:17;7.93;;;2.03;;
68803;SDS011;55787;52.678;13.314;2023-02-03T04:31:43;8.63;;;2.03;;
68803;SDS011;55787;52.678;13.314;2023-02-03T04:34:10;8.80;;;2.47;;
68803;SDS011;55787;52.678;13.314;2023-02-03T04:36:37;8.90;;;2.50;;
68803;SDS011;55787;52.678;13.314;2023-02-03T04:39:03;8.75;;;2.33;;
68803;SDS011;55787;52.678;13.314;2023-02-03T04:41:30;9.52;;;2.47;;
68803;SDS011;55787;52.678;13.314;2023-02-03T04:43:57;11.50;;;3.43;;
68803;SDS011;55787;52.678;13.314;2023-02-03T04:46:23;10.95;;;3.05;;
68803;SDS011;55787;52.678;13.314;2023-02-03T04:48:50;11.85;;;3.55;;
68803;SDS011;55787;52.678;13.314;2023-02-03T04:51:17;11.95;;;3.75;;
68803;SDS011;55787;52.678;13.314;2023-02-03T04:53:43;13.35;;;4.05;;
68803;SDS011;55787;52.678;13.314;2023-02-03T04:56:10;13.47;;;4.43;;
68803;SDS011;55787;52.678;13.314;2023-02-03T04:58:37;15.45;;;4.75;;
68803;SDS011;55787;52.678;13.314;2023-02-03T05:01:07;14.07;;;4.65;;
68803;SDS011;55787;52.678;13.314;2023-02-03T05:03:34;14.40;;;4.57;;
68803;SDS011;55787;52.678;13.314;2023-02-03T05:06:01;17.40;;;5.60;;
68803;SDS011;55787;52.678;13.314;2023-02-03T05:08:28;16.73;;;5.17;;
68803;SDS011;55787;52.678;13.314;2023-02-03T05:10:56;17.60;;;6.20;;
68803;SDS011;55787;52.678;13.314;2023-02-03T05:13:24;17.45;;;5.70;;
68803;SDS011;55787;52.678;13.314;2023-02-03T05:15:51;18.45;;;6.20;;
68803;SDS011;55787;52.678;13.314;2023-02-03T05:18:17;18.50;;;5.72;;
68803;SDS011;55787;52.678;13.314;2023-02-03T05:20:44;20.63;;;6.37;;
68803;SDS011;55787;52.678;13.314;2023-02-03T05:23:11;17.30;;;6.20;;
68803;SDS011;55787;52.678;13.314;2023-02-03T05:25:37;18.73;;;6.00;;
68803;SDS011;55787;52.678;13.314;2023-02-03T05:28:04;22.88;;;7.63;;
68803;SDS011;55787;52.678;13.314;2023-02-03T05:30:31;15.73;;;4.30;;
68803;SDS011;55787;52.678;13.314;2023-02-03T05:32:57;21.97;;;6.83;;
68803;SDS011;55787;52.678;13.314;2023-02-03T05:35:24;20.17;;;6.95;;
68803;SDS011;55787;52.678;13.314;2023-02-03T05:37:51;28.38;;;8.45;;
68803;SDS011;55787;52.678;13.314;2023-02-03T05:40:17;24.90;;;8.40;;
68803;SDS011;55787;52.678;13.314;2023-02-03T05:43:02;20.55;;;6.63;;
68803;SDS011;55787;52.678;13.314;2023-02-03T05:45:29;28.07;;;8.80;;
68803;SDS011;55787;52.678;13.314;2023-02-03T05:47:57;29.02;;;9.45;;
68803;SDS011;55787;52.678;13.314;2023-02-03T05:50:23;28.00;;;8.98;;
68803;SDS011;55787;52.678;13.314;2023-02-03T05:52:52;31.80;;;9.50;;
68803;SDS011;55787;52.678;13.314;2023-02-03T05:55:19;30.98;;;9.45;;
68803;SDS011;55787;52.678;13.314;2023-02-03T05:57:45;32.30;;;10.35;;
68803;SDS011;55787;52.678;13.314;2023-02-03T06:00:12;32.47;;;10.75;;
68803;SDS011;55787;52.678;13.314;2023-02-03T06:02:41;33.25;;;11.57;;
68803;SDS011;55787;52.678;13.314;2023-02-03T06:05:08;32.40;;;9.82;;
68803;SDS011;55787;52.678;13.314;2023-02-03T06:07:35;36.67;;;12.15;;
68803;SDS011;55787;52.678;13.314;2023-02-03T06:10:01;34.67;;;10.77;;
68803;SDS011;55787;52.678;13.314;2023-02-03T06:12:31;35.97;;;12.10;;
68803;SDS011;55787;52.678;13.314;2023-02-03T06:14:59;25.77;;;8.02;;
68803;SDS011;55787;52.678;13.314;2023-02-03T06:17:25;24.25;;;7.45;;
68803;SDS011;55787;52.678;13.314;2023-02-03T06:19:52;32.35;;;10.15;;
68803;SDS011;55787;52.678;13.314;2023-02-03T06:22:19;36.43;;;11.30;;
68803;SDS011;55787;52.678;13.314;2023-02-03T06:24:45;33.10;;;11.70;;
68803;SDS011;55787;52.678;13.314;2023-02-03T06:27:13;28.48;;;8.38;;
68803;SDS011;55787;52.678;13.314;2023-02-03T06:29:41;32.38;;;10.57;;
68803;SDS011;55787;52.678;13.314;2023-02-03T06:32:08;29.58;;;9.82;;
68803;SDS011;55787;52.678;13.314;2023-02-03T06:34:35;34.92;;;12.45;;
68803;SDS011;55787;52.678;13.314;2023-02-03T06:37:01;31.95;;;10.40;;
68803;SDS011;55787;52.678;13.314;2023-02-03T06:39:28;30.50;;;9.68;;
68803;SDS011;55787;52.678;13.314;2023-02-03T06:41:55;35.80;;;11.63;;
68803;SDS011;55787;52.678;13.314;2023-02-03T06:44:21;33.50;;;11.20;;
68803;SDS011;55787;52.678;13.314;2023-02-03T06:46:48;26.20;;;9.03;;
68803;SDS011;55787;52.678;13.314;2023-02-03T06:49:16;31.42;;;8.85;;
68803;SDS011;55787;52.678;13.314;2023-02-03T06:51:43;36.00;;;11.93;;
68803;SDS011;55787;52.678;13.314;2023-02-03T06:54:11;34.33;;;11.50;;
68803;SDS011;55787;52.678;13.314;2023-02-03T06:56:38;37.22;;;12.30;;
68803;SDS011;55787;52.678;13.314;2023-02-03T06:59:05;32.88;;;11.40;;
68803;SDS011;55787;52.678;13.314;2023-02-03T07:01:32;27.25;;;9.20;;
68803;SDS011;55787;52.678;13.314;2023-02-03T07:03:59;33.83;;;11.73;;
68803;SDS011;55787;52.678;13.314;2023-02-03T07:06:25;30.33;;;10.43;;
68803;SDS011;55787;52.678;13.314;2023-02-03T07:08:55;28.70;;;10.50;;
68803;SDS011;55787;52.678;13.314;2023-02-03T07:11:22;27.52;;;10.60;;
68803;SDS011;55787;52.678;13.314;2023-02-03T07:13:49;26.83;;;9.00;;
68803;SDS011;55787;52.678;13.314;2023-02-03T07:16:16;25.88;;;10.05;;
68803;SDS011;55787;52.678;13.314;2023-02-03T07:18:44;27.98;;;9.30;;
68803;SDS011;55787;52.678;13.314;2023-02-03T07:21:14;29.10;;;10.13;;
68803;SDS011;55787;52.678;13.314;2023-02-03T07:23:41;25.17;;;8.93;;
68803;SDS011;55787;52.678;13.314;2023-02-03T07:26:08;24.70;;;8.98;;
68803;SDS011;55787;52.678;13.314;2023-02-03T07:28:36;16.77;;;6.20;;
68803;SDS011;55787;52.678;13.314;2023-02-03T07:31:02;25.02;;;9.30;;
68803;SDS011;55787;52.678;13.314;2023-02-03T07:33:36;21.90;;;8.38;;
68803;SDS011;55787;52.678;13.314;2023-02-03T07:36:03;22.33;;;7.80;;
68803;SDS011;55787;52.678;13.314;2023-02-03T07:38:30;22.45;;;8.65;;
68803;SDS011;55787;52.678;13.314;2023-02-03T07:40:57;24.60;;;8.95;;
68803;SDS011;55787;52.678;13.314;2023-02-03T07:43:24;17.02;;;6.35;;
68803;SDS011;55787;52.678;13.314;2023-02-03T07:45:50;17.63;;;6.63;;
68803;SDS011;55787;52.678;13.314;2023-02-03T07:48:17;20.63;;;7.53;;
68803;SDS011;55787;52.678;13.314;2023-02-03T07:50:44;19.35;;;6.97;;
68803;SDS011;55787;52.678;13.314;2023-02-03T07:53:11;20.90;;;7.03;;
68803;SDS011;55787;52.678;13.314;2023-02-03T07:55:37;20.17;;;7.68;;
68803;SDS011;55787;52.678;13.314;2023-02-03T07:58:05;17.40;;;6.70;;
68803;SDS011;55787;52.678;13.314;2023-02-03T08:00:32;18.37;;;6.63;;
68803;SDS011;55787;52.678;13.314;2023-02-03T08:02:59;15.60;;;6.05;;
68803;SDS011;55787;52.678;13.314;2023-02-03T08:05:26;16.40;;;6.35;;
68803;SDS011;55787;52.678;13.314;2023-02-03T08:07:55;14.10;;;5.00;;
68803;SDS011;55787;52.678;13.314;2023-02-03T08:10:22;16.25;;;6.13;;
68803;SDS011;55787;52.678;13.314;2023-02-03T08:12:51;19.00;;;5.63;;
68803;SDS011;55787;52.678;13.314;2023-02-03T08:15:18;16.45;;;6.38;;
68803;SDS011;55787;52.678;13.314;2023-02-03T08:17:45;17.95;;;6.20;;
68803;SDS011;55787;52.678;13.314;2023-02-03T08:20:14;18.83;;;6.20;;
68803;SDS011;55787;52.678;13.314;2023-02-03T08:22:41;13.65;;;5.15;;
68803;SDS011;55787;52.678;13.314;2023-02-03T08:25:08;15.03;;;5.27;;
68803;SDS011;55787;52.678;13.314;2023-02-03T08:27:37;11.82;;;4.10;;
68803;SDS011;55787;52.678;13.314;2023-02-03T08:30:04;12.50;;;3.70;;
68803;SDS011;55787;52.678;13.314;2023-02-03T08:32:32;16.95;;;4.88;;
68803;SDS011;55787;52.678;13.314;2023-02-03T08:34:59;13.82;;;4.70;;
68803;SDS011;55787;52.678;13.314;2023-02-03T08:37:26;16.77;;;6.57;;
68803;SDS011;55787;52.678;13.314;2023-02-03T08:39:55;13.63;;;5.10;;
68803;SDS011;55787;52.678;13.314;2023-02-03T08:42:22;16.40;;;5.05;;
68803;SDS011;55787;52.678;13.314;2023-02-03T08:44:48;11.98;;;4.35;;
68803;SDS011;55787;52.678;13.314;2023-02-03T08:47:15;11.88;;;3.33;;
68803;SDS011;55787;52.678;13.314;2023-02-03T08:49:42;13.07;;;4.23;;
68803;SDS011;55787;52.678;13.314;2023-02-03T08:52:10;12.02;;;4.10;;
68803;SDS011;55787;52.678;13.314;2023-02-03T08:54:38;14.88;;;5.22;;
68803;SDS011;55787;52.678;13.314;2023-02-03T08:57:05;13.68;;;4.50;;
68803;SDS011;55787;52.678;13.314;2023-02-03T08:59:32;12.68;;;4.03;;
68803;SDS011;55787;52.678;13.314;2023-02-03T09:02:02;11.32;;;3.55;;
68803;SDS011;55787;52.678;13.314;2023-02-03T09:04:30;11.85;;;3.78;;
68803;SDS011;55787;52.678;13.314;2023-02-03T09:06:59;10.55;;;4.00;;
68803;SDS011;55787;52.678;13.314;2023-02-03T09:09:28;12.60;;;3.40;;
68803;SDS011;55787;52.678;13.314;2023-02-03T09:11:55;9.68;;;3.17;;
68803;SDS011;55787;52.678;13.314;2023-02-03T09:14:30;11.68;;;3.92;;
68803;SDS011;55787;52.678;13.314;2023-02-03T09:16:59;10.02;;;2.85;;
68803;SDS011;55787;52.678;13.314;2023-02-03T09:19:26;13.38;;;3.72;;
68803;SDS011;55787;52.678;13.314;2023-02-03T09:21:53;10.90;;;3.75;;
68803;SDS011;55787;52.678;13.314;2023-02-03T09:24:22;9.98;;;3.38;;
68803;SDS011;55787;52.678;13.314;2023-02-03T09:26:49;10.97;;;3.20;;
68803;SDS011;55787;52.678;13.314;2023-02-03T09:29:16;11.15;;;3.60;;
68803;SDS011;55787;52.678;13.314;2023-02-03T09:31:43;11.07;;;3.60;;
68803;SDS011;55787;52.678;13.314;2023-02-03T09:34:12;10.00;;;2.78;;
68803;SDS011;55787;52.678;13.314;2023-02-03T09:36:38;10.20;;;2.92;;
68803;SDS011;55787;52.678;13.314;2023-02-03T09:39:08;9.17;;;2.87;;
68803;SDS011;55787;52.678;13.314;2023-02-03T09:44:35;8.10;;;2.25;;
68803;SDS011;55787;52.678;13.314;2023-02-03T09:47:04;7.57;;;1.90;;
68803;SDS011;55787;52.678;13.314;2023-02-03T09:49:47;7.00;;;1.83;;
68803;SDS011;55787;52.678;13.314;2023-02-03T09:52:36;7.83;;;2.17;;
68803;SDS011;55787;52.678;13.314;2023-02-03T09:55:18;8.18;;;1.90;;
68803;SDS011;55787;52.678;13.314;2023-02-03T09:57:53;7.88;;;1.95;;
68803;SDS011;55787;52.678;13.314;2023-02-03T10:00:26;7.53;;;1.85;;
68803;SDS011;55787;52.678;13.314;2023-02-03T10:05:52;7.15;;;1.90;;
68803;SDS011;55787;52.678;13.314;2023-02-03T10:08:42;8.10;;;2.20;;
68803;SDS011;55787;52.678;13.314;2023-02-03T10:11:38;6.25;;;1.52;;
68803;SDS011;55787;52.678;13.314;2023-02-03T10:14:32;8.10;;;1.95;;
68803;SDS011;55787;52.678;13.314;2023-02-03T10:23:12;6.13;;;1.10;;
68803;SDS011;55787;52.678;13.314;2023-02-03T10:25:43;7.30;;;1.13;;
68803;SDS011;55787;52.678;13.314;2023-02-03T10:28:19;5.75;;;1.15;;
68803;SDS011;55787;52.678;13.314;2023-02-03T10:30:55;7.22;;;0.93;;
68803;SDS011;55787;52.678;13.314;2023-02-03T10:33:27;6.80;;;1.48;;
68803;SDS011;55787;52.678;13.314;2023-02-03T10:41:22;5.90;;;0.40;;
68803;SDS011;55787;52.678;13.314;2023-02-03T10:43:50;6.00;;;0.63;;
68803;SDS011;55787;52.678;13.314;2023-02-03T10:46:32;6.43;;;0.43;;
68803;SDS011;55787;52.678;13.314;2023-02-03T10:49:00;8.77;;;0.73;;
68803;SDS011;55787;52.678;13.314;2023-02-03T10:51:28;10.38;;;0.68;;
68803;SDS011;55787;52.678;13.314;2023-02-03T10:54:00;6.70;;;0.30;;
68803;SDS011;55787;52.678;13.314;2023-02-03T10:56:30;5.25;;;0.40;;
68803;SDS011;55787;52.678;13.314;2023-02-03T10:59:01;9.87;;;1.57;;
68803;SDS011;55787;52.678;13.314;2023-02-03T11:01:44;9.48;;;0.60;;
68803;SDS011;55787;52.678;13.314;2023-02-03T11:04:22;5.20;;;0.40;;
68803;SDS011;55787;52.678;13.314;2023-02-03T11:06:53;8.65;;;0.60;;
68803;SDS011;55787;52.678;13.314;2023-02-03T11:09:31;11.18;;;1.15;;
68803;SDS011;55787;52.678;13.314;2023-02-03T11:12:32;9.53;;;1.00;;
68803;SDS011;55787;52.678;13.314;2023-02-03T11:14:52;10.35;;;0.65;;
68803;SDS011;55787;52.678;13.314;2023-02-03T11:17:20;11.02;;;1.20;;
68803;SDS011;55787;52.678;13.314;2023-02-03T11:20:12;8.07;;;0.75;;
68803;SDS011;55787;52.678;13.314;2023-02-03T11:22:41;9.60;;;0.98;;
68803;SDS011;55787;52.678;13.314;2023-02-03T11:25:15;12.68;;;1.20;;
68803;SDS011;55787;52.678;13.314;2023-02-03T11:27:45;7.60;;;0.85;;
68803;SDS011;55787;52.678;13.314;2023-02-03T11:30:17;9.65;;;1.67;;
68803;SDS011;55787;52.678;13.314;2023-02-03T11:32:45;10.20;;;1.15;;
68803;SDS011;55787;52.678;13.314;2023-02-03T11:35:17;15.35;;;1.85;;
68803;SDS011;55787;52.678;13.314;2023-02-03T11:37:50;10.77;;;0.90;;
68803;SDS011;55787;52.678;13.314;2023-02-03T11:40:23;11.02;;;1.23;;
68803;SDS011;55787;52.678;13.314;2023-02-03T11:45:29;13.50;;;1.80;;
68803;SDS011;55787;52.678;13.314;2023-02-03T11:48:06;18.25;;;1.60;;
68803;SDS011;55787;52.678;13.314;2023-02-03T11:50:46;15.00;;;1.33;;
68803;SDS011;55787;52.678;13.314;2023-02-03T11:53:31;17.95;;;1.60;;
68803;SDS011;55787;52.678;13.314;2023-02-03T12:13:05;11.98;;;1.35;;
68803;SDS011;55787;52.678;13.314;2023-02-03T12:16:26;12.50;;;1.20;;
68803;SDS011;55787;52.678;13.314;2023-02-03T12:21:53;15.15;;;1.92;;
68803;SDS011;55787;52.678;13.314;2023-02-03T12:24:38;13.55;;;1.98;;
68803;SDS011;55787;52.678;13.314;2023-02-03T12:27:37;18.27;;;1.80;;
68803;SDS011;55787;52.678;13.314;2023-02-03T12:30:27;12.65;;;1.38;;
68803;SDS011;55787;52.678;13.314;2023-02-03T12:33:01;18.73;;;1.80;;
68803;SDS011;55787;52.678;13.314;2023-02-03T12:38:04;22.13;;;2.05;;
68803;SDS011;55787;52.678;13.314;2023-02-03T12:40:54;16.30;;;1.90;;
68803;SDS011;55787;52.678;13.314;2023-02-03T12:46:16;10.53;;;0.93;;
68803;SDS011;55787;52.678;13.314;2023-02-03T12:51:48;8.40;;;0.70;;
68803;SDS011;55787;52.678;13.314;2023-02-03T12:57:17;10.93;;;0.68;;
68803;SDS011;55787;52.678;13.314;2023-02-03T12:59:59;12.53;;;0.80;;
68803;SDS011;55787;52.678;13.314;2023-02-03T13:02:59;11.73;;;0.90;;
68803;SDS011;55787;52.678;13.314;2023-02-03T13:13:47;15.43;;;1.17;;
68803;SDS011;55787;52.678;13.314;2023-02-03T13:16:20;14.30;;;1.63;;
68803;SDS011;55787;52.678;13.314;2023-02-03T13:18:57;11.18;;;1.23;;
68803;SDS011;55787;52.678;13.314;2023-02-03T13:21:27;10.43;;;0.73;;
68803;SDS011;55787;52.678;13.314;2023-02-03T13:23:54;12.40;;;1.50;;
68803;SDS011;55787;52.678;13.314;2023-02-03T13:26:36;10.90;;;1.00;;
68803;SDS011;55787;52.678;13.314;2023-02-03T13:32:27;12.95;;;1.42;;
68803;SDS011;55787;52.678;13.314;2023-02-03T13:41:08;15.00;;;1.03;;
68803;SDS011;55787;52.678;13.314;2023-02-03T13:43:49;16.17;;;1.15;;
68803;SDS011;55787;52.678;13.314;2023-02-03T13:46:27;16.02;;;1.35;;
68803;SDS011;55787;52.678;13.314;2023-02-03T13:49:00;14.52;;;1.20;;
68803;SDS011;55787;52.678;13.314;2023-02-03T13:51:31;13.05;;;1.10;;
68803;SDS011;55787;52.678;13.314;2023-02-03T13:54:01;13.85;;;1.10;;
68803;SDS011;55787;52.678;13.314;2023-02-03T13:56:34;15.98;;;1.40;;
68803;SDS011;55787;52.678;13.314;2023-02-03T14:01:40;16.98;;;1.95;;
68803;SDS011;55787;52.678;13.314;2023-02-03T14:09:32;15.88;;;1.27;;
68803;SDS011;55787;52.678;13.314;2023-02-03T14:12:19;14.63;;;1.70;;
68803;SDS011;55787;52.678;13.314;2023-02-03T14:14:56;19.83;;;1.92;;
68803;SDS011;55787;52.678;13.314;2023-02-03T14:19:59;15.68;;;1.55;;
68803;SDS011;55787;52.678;13.314;2023-02-03T14:22:52;16.85;;;1.40;;
68803;SDS011;55787;52.678;13.314;2023-02-03T14:25:24;15.90;;;1.75;;
68803;SDS011;55787;52.678;13.314;2023-02-03T14:27:58;20.08;;;2.42;;
68803;SDS011;55787;52.678;13.314;2023-02-03T14:30:27;17.55;;;1.65;;
68803;SDS011;55787;52.678;13.314;2023-02-03T14:32:55;16.95;;;1.45;;
68803;SDS011;55787;52.678;13.314;2023-02-03T14:35:30;20.42;;;1.70;;
68803;SDS011;55787;52.678;13.314;2023-02-03T14:38:01;15.13;;;1.90;;
68803;SDS011;55787;52.678;13.314;2023-02-03T14:52:01;22.33;;;2.47;;
68803;SDS011;55787;52.678;13.314;2023-02-03T14:59:48;15.77;;;1.90;;
68803;SDS011;55787;52.678;13.314;2023-02-03T15:02:23;16.52;;;1.52;;
68803;SDS011;55787;52.678;13.314;2023-02-03T15:05:32;17.50;;;1.98;;
68803;SDS011;55787;52.678;13.314;2023-02-03T15:07:47;16.77;;;1.85;;
68803;SDS011;55787;52.678;13.314;2023-02-03T15:10:19;21.80;;;1.65;;
68803;SDS011;55787;52.678;13.314;2023-02-03T15:12:48;18.80;;;2.10;;
68803;SDS011;55787;52.678;13.314;2023-02-03T15:17:54;16.80;;;1.95;;
68803;SDS011;55787;52.678;13.314;2023-02-03T15:20:33;15.00;;;1.80;;
68803;SDS011;55787;52.678;13.314;2023-02-03T15:23:19;18.88;;;2.50;;
68803;SDS011;55787;52.678;13.314;2023-02-03T15:25:54;22.10;;;2.45;;
68803;SDS011;55787;52.678;13.314;2023-02-03T15:28:23;16.77;;;1.83;;
68803;SDS011;55787;52.678;13.314;2023-02-03T15:30:54;24.13;;;1.80;;
68803;SDS011;55787;52.678;13.314;2023-02-03T15:33:29;19.15;;;1.85;;
68803;SDS011;55787;52.678;13.314;2023-02-03T15:36:02;12.15;;;1.52;;
68803;SDS011;55787;52.678;13.314;2023-02-03T15:38:39;17.00;;;2.03;;
68803;SDS011;55787;52.678;13.314;2023-02-03T15:41:15;14.77;;;1.65;;
68803;SDS011;55787;52.678;13.314;2023-02-03T15:43:47;12.52;;;1.50;;
68803;SDS011;55787;52.678;13.314;2023-02-03T15:46:25;16.88;;;1.52;;
68803;SDS011;55787;52.678;13.314;2023-02-03T15:54:04;15.05;;;1.50;;
68803;SDS011;55787;52.678;13.314;2023-02-03T15:56:44;11.20;;;1.38;;
68803;SDS011;55787;52.678;13.314;2023-02-03T15:59:33;10.40;;;1.10;;
68803;SDS011;55787;52.678;13.314;2023-02-03T16:02:45;15.95;;;1.48;;
68803;SDS011;55787;52.678;13.314;2023-02-03T16:04:57;16.70;;;1.47;;
68803;SDS011;55787;52.678;13.314;2023-02-03T16:07:30;16.50;;;1.38;;
68803;SDS011;55787;52.678;13.314;2023-02-03T16:09:57;16.90;;;1.90;;
68803;SDS011;55787;52.678;13.314;2023-02-03T16:12:26;14.98;;;1.48;;
68803;SDS011;55787;52.678;13.314;2023-02-03T16:14:58;10.65;;;1.33;;
68803;SDS011;55787;52.678;13.314;2023-02-03T16:17:31;16.97;;;2.13;;
68803;SDS011;55787;52.678;13.314;2023-02-03T16:25:14;13.88;;;1.70;;
68803;SDS011;55787;52.678;13.314;2023-02-03T16:30:59;16.35;;;1.70;;
68803;SDS011;55787;52.678;13.314;2023-02-03T16:33:59;20.83;;;1.80;;
68803;SDS011;55787;52.678;13.314;2023-02-03T16:36:45;17.42;;;1.98;;
68803;SDS011;55787;52.678;13.314;2023-02-03T16:39:30;22.25;;;2.22;;
68803;SDS011;55787;52.678;13.314;2023-02-03T16:42:17;17.23;;;1.95;;
68803;SDS011;55787;52.678;13.314;2023-02-03T16:45:13;17.97;;;2.00;;
68803;SDS011;55787;52.678;13.314;2023-02-03T16:48:02;16.08;;;1.80;;
68803;SDS011;55787;52.678;13.314;2023-02-03T16:50:47;19.73;;;2.47;;
68803;SDS011;55787;52.678;13.314;2023-02-03T16:53:28;16.88;;;1.58;;
68803;SDS011;55787;52.678;13.314;2023-02-03T16:55:56;15.70;;;1.77;;
68803;SDS011;55787;52.678;13.314;2023-02-03T16:58:25;17.23;;;1.60;;
68803;SDS011;55787;52.678;13.314;2023-02-03T17:00:53;14.38;;;1.58;;